Terminal Aerodrome Forecast
Issued by NWS Brownsville, TX

Home | Current Version | Previous Version | Text Only | Print | Product List | Glossary On
Versions: 1 2 3 4 5 6 7 8 9 10 11 12 13 14 15 16 17
933
FTUS44 KBRO 191132
TAFBRO
TAF
KBRO 191132Z 1912/2012 30008KT P6SM OVC004
     FM191300 30007KT 5SM -DZRA OVC006
     FM200000 VRB03KT P6SM SCT020
     FM200600 00000KT 2SM BR FEW010=

USA.gov is the U.S. government's official web portal to all federal, state and local government web resources and services.